WMKP Airport Information

Runway Information
Runway 04 Length 10997 ft width 150 ft
Elevation 10 ft Threshold 0 ft Heading 42
Runway 22 Length 10997 ft Width 150 ft
Elevation 11 ft Threshold 0 ft Heading 222
Airport Frequencies
Type ATIS Name ATIS Frequency 126.4 MHZ
Type GND Name PENANG GR Frequency 121.6 MHZ
Type TWR Name PENANG TOW Frequency 121.1 MHZ
Airport Navaids
Type NDB Name Penang Frequency 406 KHZ
Type VOR-DME Name Penang Frequency 116200 KHZ
Airport Weather Information & NOTAM
ADDS - METARS form results

(0443 UTC 04 July 2020)
Data provider http://aviationweather.gov/metar/data/
 
METAR text: WMKP 040430Z 23006KT 200V290 8000 FEW020 31/24 Q1010 NOSIG
Conditions at: WMKP (PENANG/BAYAN LEP, MY) observed 0430 UTC 04 July 2020
Temperature: 31.0°C (88°F)
Dewpoint: 24.0°C (75°F) [RH = 66%]
Pressure (altimeter): 29.82 inches Hg (1010.0 mb)
Winds: from the SW (230 degrees) at 7 MPH (6 knots; 3.1 m/s)
Visibility: 5 miles ( 8 km)
Ceiling: at least 12,000 feet AGL
Clouds: few clouds at 2000 feet AGL
Weather: no significant weather observed at this time

METAR text: WMKP 040400Z VRB02KT 8000 FEW020 32/25 Q1010 NOSIG
Conditions at: WMKP (PENANG/BAYAN LEP, MY) observed 0400 UTC 04 July 2020
Temperature: 32.0°C (90°F)
Dewpoint: 25.0°C (77°F) [RH = 67%]
Pressure (altimeter): 29.82 inches Hg (1010.0 mb)
Winds: variable direction winds at 2 MPH (2 knots; 1.0 m/s)
Visibility: 5 miles ( 8 km)
Ceiling: at least 12,000 feet AGL
Clouds: few clouds at 2000 feet AGL
Weather: no significant weather observed at this time

Forecast for: WMKP (PENANG/BAYAN LEP, MY)
Text: TAF WMKP 032300Z 0400/0500 VRB03KT 8000 FEW020
Forecast period: 0000 to 0400 UTC 04 July 2020
Forecast type: FROM: standard forecast or significant change
Winds: variable direction winds at 3 MPH (3 knots; 1.5 m/s)
Visibility: 5 miles (8 km)
Ceiling: at least 12,000 feet AGL
Clouds: few clouds at 2000 feet AGL
Weather: no significant weather forecast for this period
Text: BECMG 0404/0406 22010KT 9000
Forecast period: 0400 to 1000 UTC 04 July 2020
Forecast type: BECOMING: Conditions expected to become as follows by 0600 UTC 04 July 2020
Winds: from the SW (220 degrees) at 12 MPH (10 knots; 5.1 m/s)
Visibility: 6 miles (9 km)
Ceiling: at least 12,000 feet AGL
Clouds: few clouds at 2000 feet AGL
Weather: no significant weather forecast for this period
Text: BECMG 0410/0412 VRB03KT FEW025
Forecast period: 1000 UTC 04 July 2020 to 0000 UTC 05 July 2020
Forecast type: BECOMING: Conditions expected to become as follows by 1200 UTC 04 July 2020
Winds: variable direction winds at 3 MPH (3 knots; 1.5 m/s)
Visibility: 6 miles (9 km)
Ceiling: at least 12,000 feet AGL
Clouds: few clouds at 2500 feet AGL
Weather: no significant weather forecast for this period